Time;durP1;ratioP1;P1;durP2;ratioP2;P2;SDS_P1;SDS_P2;PMS_P1;PMS_P2;Temp;Humidity;BMP_temperature;BMP_pressure;BME280_temperature;BME280_humidity;BME280_pressure;Samples;Min_cycle;Max_cycle;Signal;HPM_P1;HPM_P2
2022/11/17 00:01:54;;;;;;;;;;;7.00;89.80;;;;;;4997255;28;19917;-43
2022/11/17 00:04:21;;;;;;;;;;;7.00;89.60;;;;;;4997488;28;19917;-43
2022/11/17 00:06:46;;;;;;;;;;;6.90;89.60;;;;;;4996994;28;20000;-44
2022/11/17 00:09:18;;;;;;;;;;;6.90;89.30;;;;;;4997757;28;20004;-42
2022/11/17 00:14:32;;;;;;;;;;;6.90;88.90;;;;;;4998334;28;19964;-44
2022/11/17 00:17:04;;;;;;;;;;;6.90;88.70;;;;;;4997915;28;19910;-45
2022/11/17 00:22:16;;;;;;;;;;;6.90;88.80;;;;;;4997513;28;19936;-45
2022/11/17 00:24:42;;;;;;;;;;;6.90;88.90;;;;;;5013183;28;20016;-44
2022/11/17 00:27:09;;;;;;;;;;;6.90;88.30;;;;;;5012347;28;19960;-44
2022/11/17 00:29:35;;;;;;;;;;;6.90;88.30;;;;;;5012909;28;19920;-43
2022/11/17 00:34:46;;;;;;;;;;;6.90;88.00;;;;;;4997496;28;19916;-44
2022/11/17 00:37:13;;;;;;;;;;;6.90;88.00;;;;;;4997376;28;20018;-43
2022/11/17 00:39:43;;;;;;;;;;;6.80;87.60;;;;;;4997276;28;19968;-43
2022/11/17 00:42:10;;;;;;;;;;;6.90;87.70;;;;;;4996323;28;19913;-44
2022/11/17 00:44:37;;;;;;;;;;;6.90;87.60;;;;;;4997103;28;19956;-43
2022/11/17 00:47:04;;;;;;;;;;;6.90;87.50;;;;;;4997344;28;19906;-44
2022/11/17 00:49:30;;;;;;;;;;;6.90;87.60;;;;;;4997043;28;19914;-42
2022/11/17 00:51:56;;;;;;;;;;;6.90;87.70;;;;;;5012520;28;20283;-43
2022/11/17 00:54:23;;;;;;;;;;;6.90;87.70;;;;;;4996831;28;19913;-43
2022/11/17 00:56:49;;;;;;;;;;;6.90;87.90;;;;;;4996600;28;19914;-44
2022/11/17 00:59:16;;;;;;;;;;;6.80;88.20;;;;;;4996775;28;20001;-43
2022/11/17 01:01:43;;;;;;;;;;;6.90;88.40;;;;;;4997185;28;19933;-44
2022/11/17 01:04:11;;;;;;;;;;;6.90;88.50;;;;;;4996771;28;20013;-44
2022/11/17 01:06:37;;;;;;;;;;;6.90;88.70;;;;;;4996536;28;19925;-44
2022/11/17 01:09:10;;;;;;;;;;;6.90;88.80;;;;;;4996170;28;19913;-42
2022/11/17 01:11:37;;;;;;;;;;;6.80;88.40;;;;;;5015568;28;19906;-43
2022/11/17 01:14:03;;;;;;;;;;;6.80;88.30;;;;;;5015606;28;19909;-44
2022/11/17 01:16:30;;;;;;;;;;;6.80;88.40;;;;;;5014930;28;19909;-43
2022/11/17 01:19:01;;;;;;;;;;;6.80;88.50;;;;;;5016609;28;19925;-46
2022/11/17 01:21:28;;;;;;;;;;;6.80;88.40;;;;;;5014218;28;19940;-44
2022/11/17 01:23:56;;;;;;;;;;;6.80;88.50;;;;;;4996853;28;19906;-43
2022/11/17 01:26:24;;;;;;;;;;;6.80;88.50;;;;;;4996624;28;19914;-43
2022/11/17 01:28:51;;;;;;;;;;;6.80;88.60;;;;;;5012068;28;20315;-43
2022/11/17 01:31:22;;;;;;;;;;;6.80;88.60;;;;;;4996558;28;19909;-44
2022/11/17 01:33:53;;;;;;;;;;;6.80;88.60;;;;;;4996345;28;19956;-44
2022/11/17 01:37:17;;;;;;;;;;;6.80;88.50;;;;;;4996380;28;20259;-44
2022/11/17 01:39:17;;;;;;;;;;;6.80;88.50;;;;;;4995775;28;19916;-45
2022/11/17 01:41:43;;;;;;;;;;;6.80;88.40;;;;;;4995627;28;19917;-44
2022/11/17 01:44:29;;;;;;;;;;;6.80;88.60;;;;;;5011203;28;19932;-44
2022/11/17 01:46:55;;;;;;;;;;;6.80;88.80;;;;;;4996193;28;19910;-43
2022/11/17 01:49:25;;;;;;;;;;;6.70;88.60;;;;;;5011107;28;20371;-45
2022/11/17 01:51:58;;;;;;;;;;;6.70;88.60;;;;;;4995728;28;19913;-44
2022/11/17 01:54:27;;;;;;;;;;;6.70;88.70;;;;;;4996229;28;19906;-45
2022/11/17 01:56:55;;;;;;;;;;;6.70;88.60;;;;;;4996016;28;19913;-45
2022/11/17 01:59:45;;;;;;;;;;;6.80;88.40;;;;;;4996066;28;20172;-44
2022/11/17 02:02:12;;;;;;;;;;;6.80;88.50;;;;;;4992472;28;19909;-46
2022/11/17 02:04:52;;;;;;;;;;;6.80;88.30;;;;;;5009988;28;19980;-48
2022/11/17 02:07:25;;;;;;;;;;;6.80;88.30;;;;;;4995734;28;20339;-46
2022/11/17 02:09:54;;;;;;;;;;;6.70;88.60;;;;;;4994658;28;19961;-44
2022/11/17 02:12:23;;;;;;;;;;;6.70;88.50;;;;;;4995551;28;19980;-44
2022/11/17 02:14:50;;;;;;;;;;;6.70;88.60;;;;;;4995797;28;19906;-44
2022/11/17 02:17:18;;;;;;;;;;;6.70;88.50;;;;;;4996189;28;20402;-44
2022/11/17 02:19:47;;;;;;;;;;;6.80;88.40;;;;;;5010742;28;19910;-45
2022/11/17 02:22:32;;;;;;;;;;;6.80;88.40;;;;;;5009537;28;19957;-43
2022/11/17 02:25:16;;;;;;;;;;;6.70;88.50;;;;;;4994618;28;19968;-44
2022/11/17 02:27:57;;;;;;;;;;;6.70;88.60;;;;;;4995073;28;19972;-44
2022/11/17 02:30:25;;;;;;;;;;;6.70;88.80;;;;;;4994640;28;19914;-45
2022/11/17 02:32:54;;;;;;;;;;;6.70;88.60;;;;;;4995260;28;19905;-44
2022/11/17 02:35:26;;;;;;;;;;;6.70;88.60;;;;;;5010836;28;19906;-44
2022/11/17 02:38:09;;;;;;;;;;;6.60;88.70;;;;;;4994295;28;19975;-44
2022/11/17 02:41:06;;;;;;;;;;;6.70;88.70;;;;;;4993949;28;19905;-45
2022/11/17 02:46:30;;;;;;;;;;;6.60;88.80;;;;;;4995425;28;20060;-43
2022/11/17 02:49:04;;;;;;;;;;;6.60;88.80;;;;;;5010377;28;19906;-44
2022/11/17 02:51:31;;;;;;;;;;;6.60;88.90;;;;;;4992799;28;19948;-44
2022/11/17 02:53:58;;;;;;;;;;;6.50;88.80;;;;;;4994893;28;20335;-43
2022/11/17 02:56:26;;;;;;;;;;;6.50;89.00;;;;;;4994656;28;19952;-44
2022/11/17 02:58:55;;;;;;;;;;;6.50;89.10;;;;;;5010420;28;20382;-43
2022/11/17 03:01:36;;;;;;;;;;;6.50;89.30;;;;;;4993630;28;19942;-43
2022/11/17 03:04:16;;;;;;;;;;;6.50;89.00;;;;;;4994548;28;19984;-43
2022/11/17 03:07:00;;;;;;;;;;;6.50;89.00;;;;;;5009841;28;20436;-44
2022/11/17 03:09:46;;;;;;;;;;;6.50;89.00;;;;;;4994676;28;19936;-46
2022/11/17 03:12:30;;;;;;;;;;;6.50;89.20;;;;;;4994566;28;20033;-46
2022/11/17 03:15:02;;;;;;;;;;;6.50;89.10;;;;;;4994846;28;19917;-43
2022/11/17 03:17:50;;;;;;;;;;;6.50;89.00;;;;;;4994646;28;19906;-44
2022/11/17 03:20:35;;;;;;;;;;;6.50;89.10;;;;;;4993708;28;19913;-43
2022/11/17 03:23:13;;;;;;;;;;;6.50;89.00;;;;;;4994165;28;19913;-45
2022/11/17 03:25:41;;;;;;;;;;;6.40;89.00;;;;;;4994687;28;19940;-44
2022/11/17 03:28:10;;;;;;;;;;;6.50;89.10;;;;;;4994469;28;19917;-49
2022/11/17 03:30:39;;;;;;;;;;;6.40;89.10;;;;;;5003567;28;19909;-44
2022/11/17 03:33:14;;;;;;;;;;;6.40;88.80;;;;;;5013707;28;19916;-44
2022/11/17 03:35:42;;;;;;;;;;;6.40;88.70;;;;;;5003021;28;19921;-47
2022/11/17 03:38:11;;;;;;;;;;;6.40;89.00;;;;;;4994420;28;19905;-44
2022/11/17 03:40:39;;;;;;;;;;;6.40;88.90;;;;;;4993294;28;19906;-44
2022/11/17 03:43:08;;;;;;;;;;;6.40;89.10;;;;;;4993545;28;20323;-45
2022/11/17 03:45:38;;;;;;;;;;;6.50;89.00;;;;;;4994394;28;19910;-46
2022/11/17 03:48:22;;;;;;;;;;;6.40;88.80;;;;;;4994134;28;19913;-45
2022/11/17 03:50:57;;;;;;;;;;;6.40;88.70;;;;;;4993720;28;19931;-44
2022/11/17 03:53:24;;;;;;;;;;;6.40;88.80;;;;;;4993602;28;20262;-45
2022/11/17 03:56:01;;;;;;;;;;;6.40;88.70;;;;;;4993592;28;19914;-45
2022/11/17 03:58:30;;;;;;;;;;;6.40;88.80;;;;;;4993380;28;19909;-43
2022/11/17 04:00:58;;;;;;;;;;;6.40;89.00;;;;;;4998347;28;19996;-46
2022/11/17 04:03:30;;;;;;;;;;;6.40;89.00;;;;;;5011508;28;19913;-48
2022/11/17 04:05:55;;;;;;;;;;;6.30;88.90;;;;;;5012854;28;19924;-44
2022/11/17 04:08:24;;;;;;;;;;;6.40;89.00;;;;;;5013569;28;19921;-47
2022/11/17 04:16:23;;;;;;;;;;;6.30;88.90;;;;;;4994616;28;19928;-47
2022/11/17 04:18:50;;;;;;;;;;;6.30;88.90;;;;;;5012143;28;19909;-46
2022/11/17 04:21:16;;;;;;;;;;;6.30;89.10;;;;;;5011914;28;19976;-46
2022/11/17 04:23:47;;;;;;;;;;;6.30;89.10;;;;;;5011586;28;19967;-47
2022/11/17 04:28:59;;;;;;;;;;;6.20;88.90;;;;;;5009861;28;20349;-47
2022/11/17 04:31:29;;;;;;;;;;;6.20;88.70;;;;;;5010687;28;19910;-48
2022/11/17 04:33:57;;;;;;;;;;;6.20;88.80;;;;;;5011957;28;20327;-47
2022/11/17 04:36:25;;;;;;;;;;;6.20;88.90;;;;;;5012919;28;19913;-46
2022/11/17 04:38:52;;;;;;;;;;;6.20;88.80;;;;;;5010994;28;20024;-47
2022/11/17 04:44:08;;;;;;;;;;;6.20;88.70;;;;;;5009739;28;19916;-46
2022/11/17 04:46:36;;;;;;;;;;;6.10;88.30;;;;;;5015896;28;19913;-47
2022/11/17 04:49:07;;;;;;;;;;;6.10;88.40;;;;;;5012710;28;20280;-47
2022/11/17 04:51:34;;;;;;;;;;;6.10;88.50;;;;;;4997194;28;19910;-47
2022/11/17 04:54:01;;;;;;;;;;;6.10;88.70;;;;;;4997187;28;19920;-47
2022/11/17 04:56:28;;;;;;;;;;;6.10;88.20;;;;;;4996770;28;20000;-47
2022/11/17 04:58:55;;;;;;;;;;;6.10;88.10;;;;;;4997059;28;19973;-45
2022/11/17 05:01:22;;;;;;;;;;;6.10;88.00;;;;;;4996980;28;19906;-45
2022/11/17 05:03:54;;;;;;;;;;;6.00;88.10;;;;;;4996861;28;19945;-46
2022/11/17 05:06:28;;;;;;;;;;;6.10;88.00;;;;;;4996948;28;19914;-47
2022/11/17 05:08:55;;;;;;;;;;;6.10;88.00;;;;;;4997123;28;20422;-47
2022/11/17 05:14:09;;;;;;;;;;;6.00;88.10;;;;;;4997197;28;19968;-46
2022/11/17 05:19:22;;;;;;;;;;;6.00;87.90;;;;;;4997149;28;19960;-46
2022/11/17 05:21:49;;;;;;;;;;;6.00;87.70;;;;;;5011991;28;20378;-46
2022/11/17 05:24:16;;;;;;;;;;;6.00;87.80;;;;;;4997245;28;20234;-46
2022/11/17 05:26:44;;;;;;;;;;;6.00;87.90;;;;;;5010739;28;19917;-47
2022/11/17 05:29:11;;;;;;;;;;;6.00;88.10;;;;;;4996403;28;19906;-47
2022/11/17 05:31:38;;;;;;;;;;;6.00;88.00;;;;;;5010599;28;19917;-46
2022/11/17 05:34:06;;;;;;;;;;;5.90;87.90;;;;;;4996453;28;19914;-49
2022/11/17 05:36:33;;;;;;;;;;;5.90;87.80;;;;;;4996645;28;19909;-46
2022/11/17 05:38:59;;;;;;;;;;;5.90;87.70;;;;;;4995409;28;20012;-46
2022/11/17 05:41:25;;;;;;;;;;;5.90;87.90;;;;;;4995730;28;19996;-48
2022/11/17 05:43:52;;;;;;;;;;;5.90;87.70;;;;;;4996099;28;20286;-46
2022/11/17 05:46:19;;;;;;;;;;;5.90;87.60;;;;;;4996405;28;19913;-47
2022/11/17 05:48:48;;;;;;;;;;;5.90;87.40;;;;;;5011719;28;19909;-46
2022/11/17 05:51:15;;;;;;;;;;;5.90;87.70;;;;;;4995947;28;20028;-48
2022/11/17 05:53:43;;;;;;;;;;;5.90;87.70;;;;;;5010705;28;19913;-47
2022/11/17 05:56:27;;;;;;;;;;;5.90;87.80;;;;;;5007316;28;20250;-47
2022/11/17 05:58:59;;;;;;;;;;;5.90;87.50;;;;;;5013718;28;19941;-46
2022/11/17 06:01:26;;;;;;;;;;;5.90;87.60;;;;;;5011524;28;19921;-47
2022/11/17 06:03:53;;;;;;;;;;;5.80;87.70;;;;;;5011859;28;20040;-47
2022/11/17 06:06:20;;;;;;;;;;;5.80;87.90;;;;;;5014395;28;19917;-46
2022/11/17 06:08:46;;;;;;;;;;;5.80;88.00;;;;;;5013789;28;19960;-46
2022/11/17 06:11:15;;;;;;;;;;;5.80;88.30;;;;;;5013942;28;19921;-45
2022/11/17 06:13:42;;;;;;;;;;;5.70;88.30;;;;;;5014388;28;19909;-46
2022/11/17 06:16:10;;;;;;;;;;;5.70;88.70;;;;;;5013615;28;19917;-48
2022/11/17 06:18:39;;;;;;;;;;;5.70;89.30;;;;;;5012757;28;20250;-57
2022/11/17 06:21:07;;;;;;;;;;;5.60;89.60;;;;;;5007767;28;20261;-53
2022/11/17 06:23:34;;;;;;;;;;;5.60;89.80;;;;;;5014522;28;19917;-52
2022/11/17 06:26:06;;;;;;;;;;;5.50;89.90;;;;;;5013130;28;19913;-53
2022/11/17 06:28:37;;;;;;;;;;;5.40;90.30;;;;;;4997222;28;19917;-59
2022/11/17 06:31:04;;;;;;;;;;;5.40;90.70;;;;;;5006144;28;19971;-57
2022/11/17 06:33:30;;;;;;;;;;;5.30;90.80;;;;;;5005852;28;20017;-59
2022/11/17 06:35:58;;;;;;;;;;;5.30;90.90;;;;;;5013431;28;19944;-55
2022/11/17 06:38:24;;;;;;;;;;;5.30;91.20;;;;;;5011953;28;19956;-58
2022/11/17 06:40:50;;;;;;;;;;;5.30;91.30;;;;;;5009494;28;19995;-54
2022/11/17 06:43:17;;;;;;;;;;;5.20;91.50;;;;;;5012928;28;19965;-54
2022/11/17 06:45:44;;;;;;;;;;;5.20;91.60;;;;;;5012519;28;20282;-53
2022/11/17 06:48:13;;;;;;;;;;;5.20;91.70;;;;;;5010533;28;19924;-54
2022/11/17 06:50:42;;;;;;;;;;;5.10;91.70;;;;;;5010316;28;19917;-58
2022/11/17 06:53:08;;;;;;;;;;;5.20;91.90;;;;;;5013084;28;20258;-59
2022/11/17 06:55:35;;;;;;;;;;;5.10;92.00;;;;;;5012520;28;19967;-57
2022/11/17 06:58:07;;;;;;;;;;;5.10;92.10;;;;;;5011094;28;20232;-55
2022/11/17 07:00:35;;;;;;;;;;;5.10;92.20;;;;;;5010725;28;19913;-52
2022/11/17 07:03:05;;;;;;;;;;;5.00;92.10;;;;;;5011083;28;19917;-52
2022/11/17 07:05:33;;;;;;;;;;;5.00;92.30;;;;;;5012105;28;19909;-55
2022/11/17 07:08:00;;;;;;;;;;;5.00;92.30;;;;;;5011891;28;19921;-53
2022/11/17 07:10:26;;;;;;;;;;;5.00;92.40;;;;;;5010751;28;19913;-53
2022/11/17 07:12:53;;;;;;;;;;;5.10;92.30;;;;;;5012589;28;19914;-52
2022/11/17 07:15:20;;;;;;;;;;;5.00;92.20;;;;;;5012846;28;19920;-52
2022/11/17 07:17:47;;;;;;;;;;;5.00;92.30;;;;;;5006185;28;19980;-52
2022/11/17 07:20:13;;;;;;;;;;;5.00;92.30;;;;;;5005331;28;19995;-52
2022/11/17 07:22:40;;;;;;;;;;;4.90;92.00;;;;;;5011563;28;20423;-55
2022/11/17 07:25:06;;;;;;;;;;;4.90;92.20;;;;;;5028332;28;19917;-57
2022/11/17 07:27:33;;;;;;;;;;;4.90;92.20;;;;;;5013962;28;19913;-52
2022/11/17 07:29:58;;;;;;;;;;;4.90;92.10;;;;;;5012574;28;19952;-50
2022/11/17 07:32:25;;;;;;;;;;;4.80;92.10;;;;;;5004231;28;19941;-52
2022/11/17 07:34:55;;;;;;;;;;;4.90;92.30;;;;;;5010844;28;20278;-50
2022/11/17 07:37:22;;;;;;;;;;;4.90;92.30;;;;;;5013352;28;19909;-50
2022/11/17 07:39:48;;;;;;;;;;;4.90;92.40;;;;;;5008096;28;19914;-52
2022/11/17 07:42:15;;;;;;;;;;;4.80;92.40;;;;;;5002390;28;20250;-52
2022/11/17 07:44:42;;;;;;;;;;;4.80;92.30;;;;;;5012777;28;19928;-50
2022/11/17 07:47:11;;;;;;;;;;;4.70;92.30;;;;;;5010680;28;20347;-52
2022/11/17 07:49:38;;;;;;;;;;;4.70;92.20;;;;;;5011994;28;20255;-49
2022/11/17 07:52:05;;;;;;;;;;;4.70;92.20;;;;;;5001613;28;20004;-51
2022/11/17 07:54:30;;;;;;;;;;;4.70;92.50;;;;;;5012592;28;19940;-54
2022/11/17 07:56:57;;;;;;;;;;;4.70;92.30;;;;;;5008297;28;19999;-57
2022/11/17 07:59:27;;;;;;;;;;;4.70;92.10;;;;;;5010389;28;19957;-56
2022/11/17 08:01:54;;;;;;;;;;;4.70;92.30;;;;;;5012433;28;19913;-59
2022/11/17 08:04:23;;;;;;;;;;;4.70;92.20;;;;;;5012054;28;20347;-57
2022/11/17 08:06:48;;;;;;;;;;;4.70;92.30;;;;;;5011396;28;19914;-55
2022/11/17 08:09:15;;;;;;;;;;;4.70;92.40;;;;;;5011853;28;20331;-54
2022/11/17 08:11:44;;;;;;;;;;;4.60;92.40;;;;;;5008566;28;19918;-52
2022/11/17 08:14:11;;;;;;;;;;;4.70;92.30;;;;;;5010942;28;19905;-52
2022/11/17 08:16:38;;;;;;;;;;;4.60;92.30;;;;;;5007287;28;19992;-53
2022/11/17 08:19:05;;;;;;;;;;;4.70;92.50;;;;;;5012940;28;19968;-57
2022/11/17 08:21:32;;;;;;;;;;;4.60;92.50;;;;;;5015717;28;19916;-50
2022/11/17 08:23:59;;;;;;;;;;;4.60;92.50;;;;;;5007513;28;19917;-51
2022/11/17 08:26:24;;;;;;;;;;;4.60;92.50;;;;;;5012714;28;19983;-53
2022/11/17 08:28:52;;;;;;;;;;;4.60;92.50;;;;;;5014537;28;19929;-51
2022/11/17 08:31:17;;;;;;;;;;;4.70;92.70;;;;;;5016321;28;19920;-51
2022/11/17 08:33:44;;;;;;;;;;;4.60;92.60;;;;;;5005799;28;19909;-51
2022/11/17 08:36:11;;;;;;;;;;;4.60;92.50;;;;;;5011579;28;20369;-52
2022/11/17 08:38:38;;;;;;;;;;;4.70;92.60;;;;;;5015759;28;19913;-53
2022/11/17 08:41:06;;;;;;;;;;;4.70;92.40;;;;;;5004248;28;20254;-51
2022/11/17 08:43:34;;;;;;;;;;;4.70;92.50;;;;;;5014427;28;20334;-57
2022/11/17 08:46:01;;;;;;;;;;;4.70;92.40;;;;;;5015810;28;19963;-52
2022/11/17 08:48:30;;;;;;;;;;;4.70;92.30;;;;;;5014785;28;20241;-52
2022/11/17 08:50:57;;;;;;;;;;;4.70;92.20;;;;;;5014943;28;20006;-52
2022/11/17 08:53:28;;;;;;;;;;;4.70;92.30;;;;;;5015896;28;19960;-52
2022/11/17 08:55:54;;;;;;;;;;;4.70;92.40;;;;;;5014528;28;19918;-56
2022/11/17 08:58:21;;;;;;;;;;;4.70;92.50;;;;;;5015673;28;19909;-56
2022/11/17 09:00:48;;;;;;;;;;;4.70;92.60;;;;;;5013729;28;19913;-52
2022/11/17 09:03:15;;;;;;;;;;;4.70;92.50;;;;;;5014978;28;19917;-51
2022/11/17 09:05:43;;;;;;;;;;;4.70;92.40;;;;;;5013032;28;19909;-54
2022/11/17 09:08:12;;;;;;;;;;;4.70;92.60;;;;;;5012852;28;19953;-55
2022/11/17 09:10:39;;;;;;;;;;;4.60;92.50;;;;;;5014351;28;19973;-52
2022/11/17 09:13:06;;;;;;;;;;;4.60;92.40;;;;;;5013930;28;19910;-56
2022/11/17 09:15:33;;;;;;;;;;;4.70;92.50;;;;;;4998351;28;19996;-54
2022/11/17 09:18:02;;;;;;;;;;;4.70;92.40;;;;;;5010831;28;19905;-51
2022/11/17 09:20:30;;;;;;;;;;;4.70;92.50;;;;;;5015399;28;19913;-50
2022/11/17 09:23:01;;;;;;;;;;;4.60;92.50;;;;;;5013908;28;19909;-53
2022/11/17 09:25:28;;;;;;;;;;;4.60;92.30;;;;;;5015283;28;20361;-54
2022/11/17 09:27:57;;;;;;;;;;;4.60;92.40;;;;;;5007632;28;19975;-51
2022/11/17 09:30:24;;;;;;;;;;;4.60;92.50;;;;;;5013278;28;19920;-49
2022/11/17 09:32:51;;;;;;;;;;;4.60;92.60;;;;;;5010866;28;19910;-53
2022/11/17 09:35:21;;;;;;;;;;;4.60;92.70;;;;;;5013150;28;19963;-50
2022/11/17 09:37:47;;;;;;;;;;;4.60;92.60;;;;;;5014618;28;19915;-51
2022/11/17 09:40:15;;;;;;;;;;;4.50;92.50;;;;;;5004037;28;20317;-54
2022/11/17 09:42:41;;;;;;;;;;;4.60;92.50;;;;;;5013236;28;20000;-54
2022/11/17 09:45:30;;;;;;;;;;;4.60;92.50;;;;;;5013966;28;19910;-51
2022/11/17 09:48:12;;;;;;;;;;;4.50;92.30;;;;;;5014269;28;20631;-52
2022/11/17 09:50:39;;;;;;;;;;;4.50;92.40;;;;;;5001478;28;19918;-51
2022/11/17 09:53:23;;;;;;;;;;;4.60;92.50;;;;;;5014401;28;20653;-50
2022/11/17 09:55:52;;;;;;;;;;;4.70;92.60;;;;;;5009288;28;19909;-49
2022/11/17 09:58:24;;;;;;;;;;;4.60;92.50;;;;;;5006172;28;20329;-50
2022/11/17 10:00:52;;;;;;;;;;;4.70;92.50;;;;;;5014433;28;19924;-50
2022/11/17 10:03:20;;;;;;;;;;;4.60;92.50;;;;;;5014462;28;19913;-51
2022/11/17 10:05:49;;;;;;;;;;;4.70;92.50;;;;;;5011868;28;20000;-48
2022/11/17 10:08:18;;;;;;;;;;;4.60;92.30;;;;;;5014066;28;19963;-49
2022/11/17 10:10:47;;;;;;;;;;;4.60;92.40;;;;;;5014558;28;19975;-51
2022/11/17 10:13:26;;;;;;;;;;;4.70;92.30;;;;;;5013278;28;19910;-51
2022/11/17 10:16:06;;;;;;;;;;;4.70;92.50;;;;;;5010150;28;19917;-49
2022/11/17 10:18:37;;;;;;;;;;;4.70;92.40;;;;;;5013469;28;19923;-49
2022/11/17 10:21:08;;;;;;;;;;;4.70;92.20;;;;;;5011406;28;19956;-45
2022/11/17 10:23:37;;;;;;;;;;;4.80;92.50;;;;;;5012862;28;19924;-45
2022/11/17 10:26:06;;;;;;;;;;;4.80;92.40;;;;;;5011144;28;19968;-47
2022/11/17 10:28:33;;;;;;;;;;;4.70;92.20;;;;;;5010473;28;19909;-44
2022/11/17 10:31:17;;;;;;;;;;;4.70;92.30;;;;;;5007081;28;19910;-47
2022/11/17 10:33:48;;;;;;;;;;;4.70;92.30;;;;;;5002579;28;19917;-46
2022/11/17 10:36:22;;;;;;;;;;;4.70;92.20;;;;;;5012083;28;19909;-46
2022/11/17 10:38:50;;;;;;;;;;;4.70;92.20;;;;;;5013599;28;19909;-44
2022/11/17 10:41:19;;;;;;;;;;;4.70;92.20;;;;;;5012907;28;19909;-44
2022/11/17 10:44:05;;;;;;;;;;;4.80;92.20;;;;;;5004350;28;20266;-43
2022/11/17 10:46:51;;;;;;;;;;;4.90;92.20;;;;;;5001378;28;19909;-44
2022/11/17 10:49:26;;;;;;;;;;;4.90;92.20;;;;;;5009372;28;19917;-44
2022/11/17 10:52:13;;;;;;;;;;;4.90;92.10;;;;;;5013348;28;19909;-45
2022/11/17 10:54:38;;;;;;;;;;;4.90;92.10;;;;;;5011643;28;19909;-47
2022/11/17 10:57:06;;;;;;;;;;;4.90;92.00;;;;;;5009935;28;19916;-46
2022/11/17 10:59:44;;;;;;;;;;;4.90;92.20;;;;;;5013223;28;19975;-44
2022/11/17 11:02:25;;;;;;;;;;;4.90;92.00;;;;;;5013343;28;19922;-44
2022/11/17 11:05:11;;;;;;;;;;;4.90;91.90;;;;;;5011083;28;20634;-44
2022/11/17 11:07:39;;;;;;;;;;;4.90;91.80;;;;;;5010919;28;19921;-44
2022/11/17 11:10:04;;;;;;;;;;;4.90;91.60;;;;;;5012202;28;19925;-44
2022/11/17 11:12:35;;;;;;;;;;;4.90;91.60;;;;;;5009169;28;19913;-45
2022/11/17 11:15:02;;;;;;;;;;;4.90;91.60;;;;;;5010883;28;19913;-44
2022/11/17 11:17:29;;;;;;;;;;;4.90;91.70;;;;;;5011797;28;20019;-47
2022/11/17 11:19:58;;;;;;;;;;;4.90;91.70;;;;;;5010778;28;20291;-47
2022/11/17 11:22:42;;;;;;;;;;;4.90;91.70;;;;;;5009309;28;20683;-44
2022/11/17 11:25:14;;;;;;;;;;;4.90;91.70;;;;;;5006334;28;19913;-44
2022/11/17 11:27:59;;;;;;;;;;;4.90;91.70;;;;;;5012042;28;19913;-44
2022/11/17 11:30:25;;;;;;;;;;;4.90;91.70;;;;;;5009131;28;19913;-44
2022/11/17 11:33:09;;;;;;;;;;;5.00;91.70;;;;;;5012343;28;19909;-45
2022/11/17 11:35:44;;;;;;;;;;;5.00;91.90;;;;;;5011029;28;19910;-44
2022/11/17 11:38:29;;;;;;;;;;;5.00;91.90;;;;;;5008735;28;20339;-44
2022/11/17 11:41:13;;;;;;;;;;;5.00;91.70;;;;;;5009868;28;19955;-46
2022/11/17 11:43:50;;;;;;;;;;;5.00;91.70;;;;;;5008591;28;19913;-45
2022/11/17 11:46:35;;;;;;;;;;;5.00;91.70;;;;;;5024830;28;19913;-44
2022/11/17 11:49:10;;;;;;;;;;;5.00;91.60;;;;;;5010134;28;19913;-44
2022/11/17 11:51:37;;;;;;;;;;;5.00;91.60;;;;;;5008595;28;19909;-43
2022/11/17 11:54:19;;;;;;;;;;;5.00;91.30;;;;;;5010134;28;19914;-42
2022/11/17 11:56:46;;;;;;;;;;;5.00;91.40;;;;;;5007668;28;19914;-43
2022/11/17 11:59:21;;;;;;;;;;;5.10;91.40;;;;;;5009786;28;20319;-43
2022/11/17 12:02:07;;;;;;;;;;;5.10;91.60;;;;;;5011264;28;19905;-49
2022/11/17 12:04:51;;;;;;;;;;;5.00;91.40;;;;;;5007524;28;19912;-55
2022/11/17 12:07:23;;;;;;;;;;;5.10;91.60;;;;;;5008049;28;20587;-54
2022/11/17 12:10:06;;;;;;;;;;;5.10;91.80;;;;;;5009968;28;19976;-52
2022/11/17 12:12:39;;;;;;;;;;;5.00;92.10;;;;;;5008755;28;19917;-56
2022/11/17 12:15:19;;;;;;;;;;;5.10;92.20;;;;;;5007503;28;19976;-52
2022/11/17 12:17:57;;;;;;;;;;;5.10;92.30;;;;;;5021460;28;19929;-49
2022/11/17 12:20:34;;;;;;;;;;;5.10;92.30;;;;;;5024207;28;19905;-54
2022/11/17 12:23:11;;;;;;;;;;;5.10;92.50;;;;;;5008208;28;19932;-56
2022/11/17 12:25:44;;;;;;;;;;;5.00;92.40;;;;;;5009196;28;19909;-53
2022/11/17 12:28:28;;;;;;;;;;;5.00;92.50;;;;;;5007552;28;20343;-49
2022/11/17 12:30:56;;;;;;;;;;;5.00;92.50;;;;;;5009430;28;19913;-52
2022/11/17 12:33:43;;;;;;;;;;;5.00;92.70;;;;;;5007702;28;19917;-51
2022/11/17 12:36:28;;;;;;;;;;;5.00;92.70;;;;;;5004667;28;19964;-55
2022/11/17 12:38:55;;;;;;;;;;;5.10;92.60;;;;;;5004708;28;19996;-57
2022/11/17 12:41:40;;;;;;;;;;;5.00;92.50;;;;;;5005557;28;19956;-57
2022/11/17 12:44:28;;;;;;;;;;;5.10;92.60;;;;;;5005436;28;19913;-56
2022/11/17 12:46:59;;;;;;;;;;;5.10;92.70;;;;;;5005738;28;19910;-55
2022/11/17 12:49:34;;;;;;;;;;;5.20;92.60;;;;;;5005167;28;20282;-57
2022/11/17 12:52:02;;;;;;;;;;;5.20;92.80;;;;;;5004882;28;20362;-57
2022/11/17 12:54:52;;;;;;;;;;;5.20;92.50;;;;;;5004635;28;19917;-61
2022/11/17 12:57:23;;;;;;;;;;;5.20;92.70;;;;;;5004002;28;20425;-60
2022/11/17 13:00:09;;;;;;;;;;;5.20;92.80;;;;;;5004469;28;20343;-57
2022/11/17 13:03:12;;;;;;;;;;;5.20;92.80;;;;;;5017350;28;19917;-57
2022/11/17 13:05:39;;;;;;;;;;;5.20;92.80;;;;;;4939481;29;20005;-57
2022/11/17 13:08:13;;;;;;;;;;;5.20;92.90;;;;;;4986612;28;20690;-54
2022/11/17 13:10:43;;;;;;;;;;;5.20;92.90;;;;;;4999156;28;19915;-55
2022/11/17 13:13:27;;;;;;;;;;;5.30;93.00;;;;;;4998847;28;19917;-53
2022/11/17 13:15:55;;;;;;;;;;;5.30;93.00;;;;;;4999308;28;20007;-57
2022/11/17 13:18:27;;;;;;;;;;;5.30;93.00;;;;;;4999936;28;20382;-58
2022/11/17 13:20:54;;;;;;;;;;;5.30;92.90;;;;;;4998961;28;20310;-54
2022/11/17 13:23:24;;;;;;;;;;;5.30;93.00;;;;;;4999897;28;19963;-57
2022/11/17 13:26:06;;;;;;;;;;;5.40;93.00;;;;;;5000208;28;19909;-56
2022/11/17 13:28:33;;;;;;;;;;;5.40;92.90;;;;;;4999251;28;19914;-56
2022/11/17 13:31:00;;;;;;;;;;;5.40;92.80;;;;;;4997861;28;20539;-58
2022/11/17 13:33:29;;;;;;;;;;;5.40;92.70;;;;;;5004200;28;19956;-55
2022/11/17 13:36:26;;;;;;;;;;;5.40;92.70;;;;;;5012145;28;19913;-54
2022/11/17 13:38:59;;;;;;;;;;;5.40;92.70;;;;;;4995296;28;20372;-57
2022/11/17 13:41:28;;;;;;;;;;;5.40;92.70;;;;;;5013132;28;19909;-55
2022/11/17 13:43:55;;;;;;;;;;;5.40;92.70;;;;;;5014780;28;19980;-57
2022/11/17 13:46:21;;;;;;;;;;;5.50;92.80;;;;;;4997732;28;19936;-55
2022/11/17 13:48:49;;;;;;;;;;;5.50;92.60;;;;;;5014578;28;20039;-52
2022/11/17 13:51:23;;;;;;;;;;;5.40;92.70;;;;;;5006690;28;20306;-52
2022/11/17 13:53:53;;;;;;;;;;;5.40;92.60;;;;;;5009572;28;19933;-51
2022/11/17 13:56:37;;;;;;;;;;;5.40;92.70;;;;;;4995772;28;19956;-55
2022/11/17 13:59:23;;;;;;;;;;;5.40;92.70;;;;;;5014403;28;20401;-51
2022/11/17 14:02:10;;;;;;;;;;;5.40;92.80;;;;;;5020652;28;20431;-50
2022/11/17 14:04:37;;;;;;;;;;;5.30;92.90;;;;;;5008282;28;19913;-56
2022/11/17 14:07:03;;;;;;;;;;;5.30;92.80;;;;;;5013812;28;19925;-52
2022/11/17 14:09:33;;;;;;;;;;;5.30;92.90;;;;;;4997335;28;20365;-52
2022/11/17 14:12:00;;;;;;;;;;;5.30;92.90;;;;;;4997783;28;19913;-56
2022/11/17 14:14:30;;;;;;;;;;;5.30;92.90;;;;;;5005822;28;20604;-52
2022/11/17 14:17:07;;;;;;;;;;;5.30;93.00;;;;;;5003314;28;20629;-56
2022/11/17 14:19:32;;;;;;;;;;;5.30;93.00;;;;;;5004489;28;20290;-58
2022/11/17 14:22:09;;;;;;;;;;;5.20;93.00;;;;;;5006563;28;19914;-61
2022/11/17 14:24:39;;;;;;;;;;;5.20;93.10;;;;;;4999510;28;20340;-59
2022/11/17 14:27:33;;;;;;;;;;;5.20;93.10;;;;;;4997968;28;19961;-60
2022/11/17 14:30:00;;;;;;;;;;;5.20;93.20;;;;;;5002998;28;19909;-53
2022/11/17 14:32:27;;;;;;;;;;;5.20;93.10;;;;;;5007834;28;19909;-54
2022/11/17 14:34:53;;;;;;;;;;;5.20;93.10;;;;;;5010074;28;19909;-51
2022/11/17 14:37:20;;;;;;;;;;;5.20;93.20;;;;;;5012985;28;19924;-49
2022/11/17 14:39:49;;;;;;;;;;;5.20;93.10;;;;;;5012017;28;19910;-51
2022/11/17 14:42:15;;;;;;;;;;;5.20;93.20;;;;;;4999997;28;19914;-50
2022/11/17 14:44:45;;;;;;;;;;;5.30;93.20;;;;;;4994375;28;19956;-50
2022/11/17 14:47:15;;;;;;;;;;;5.30;93.10;;;;;;5009842;28;19960;-49
2022/11/17 14:49:41;;;;;;;;;;;5.30;93.20;;;;;;4994245;28;19906;-49
2022/11/17 14:52:08;;;;;;;;;;;5.30;93.20;;;;;;4994136;28;19960;-50
2022/11/17 14:54:35;;;;;;;;;;;5.40;93.20;;;;;;4992992;28;19921;-49
2022/11/17 14:57:01;;;;;;;;;;;5.30;93.00;;;;;;4993988;28;19945;-49
2022/11/17 14:59:31;;;;;;;;;;;5.30;93.00;;;;;;5010065;28;19906;-50
2022/11/17 15:01:58;;;;;;;;;;;5.30;92.90;;;;;;4996354;28;19956;-53
2022/11/17 15:04:24;;;;;;;;;;;5.30;93.00;;;;;;5010752;28;20363;-50
2022/11/17 15:06:52;;;;;;;;;;;5.30;93.00;;;;;;5013198;28;20343;-52
2022/11/17 15:09:19;;;;;;;;;;;5.30;92.90;;;;;;5007967;28;19917;-53
2022/11/17 15:11:47;;;;;;;;;;;5.20;92.90;;;;;;4994649;28;19906;-54
2022/11/17 15:14:13;;;;;;;;;;;5.30;93.00;;;;;;4993924;28;19920;-53
2022/11/17 15:16:40;;;;;;;;;;;5.30;93.00;;;;;;4998151;28;20278;-56
2022/11/17 15:19:07;;;;;;;;;;;5.30;93.10;;;;;;5007938;28;19910;-54
2022/11/17 15:21:34;;;;;;;;;;;5.20;93.00;;;;;;5006809;28;19917;-57